createdAt,value
2023-03-30T00:02:05.330Z,7.80
2023-03-30T00:04:52.788Z,9.00
2023-03-30T00:07:42.184Z,8.80
2023-03-30T00:10:29.602Z,11.60
2023-03-30T00:13:16.986Z,8.80
2023-03-30T00:16:07.025Z,7.80
2023-03-30T00:18:53.248Z,7.30
2023-03-30T00:21:39.872Z,7.40
2023-03-30T00:24:26.559Z,7.90
2023-03-30T00:27:13.143Z,10.40
2023-03-30T00:29:59.911Z,10.30
2023-03-30T00:32:47.221Z,10.90
2023-03-30T00:35:34.744Z,9.70
2023-03-30T00:38:21.634Z,9.10
2023-03-30T00:41:09.427Z,9.70
2023-03-30T00:44:05.218Z,9.10
2023-03-30T00:46:51.739Z,9.10
2023-03-30T00:49:39.323Z,8.60
2023-03-30T00:52:28.055Z,10.00
2023-03-30T00:55:14.866Z,8.10
2023-03-30T00:58:01.804Z,8.60
2023-03-30T01:00:48.783Z,7.40
2023-03-30T01:03:39.455Z,7.50
2023-03-30T01:09:17.544Z,8.40
2023-03-30T01:12:05.488Z,8.40
2023-03-30T01:14:52.485Z,11.50
2023-03-30T01:18:04.655Z,11.20
2023-03-30T01:21:29.983Z,10.90
2023-03-30T01:24:53.488Z,11.20
2023-03-30T01:27:49.785Z,10.80
2023-03-30T01:30:45.466Z,10.80
2023-03-30T01:33:47.160Z,10.10
2023-03-30T01:36:57.981Z,10.70
2023-03-30T01:39:55.657Z,10.20
2023-03-30T01:45:57.592Z,8.10
2023-03-30T01:48:50.299Z,9.40
2023-03-30T01:51:45.412Z,9.20
2023-03-30T01:54:38.167Z,8.00
2023-03-30T01:57:35.304Z,9.10
2023-03-30T02:00:23.925Z,8.80
2023-03-30T02:03:19.147Z,12.60
2023-03-30T02:06:15.769Z,11.70
2023-03-30T02:09:03.241Z,11.30
2023-03-30T02:11:53.632Z,11.50
2023-03-30T02:14:41.804Z,11.50
2023-03-30T02:17:30.756Z,10.30
2023-03-30T02:20:17.876Z,10.80
2023-03-30T02:23:06.259Z,11.10
2023-03-30T02:25:53.512Z,9.50
2023-03-30T02:28:40.453Z,11.00
2023-03-30T02:31:27.072Z,8.60
2023-03-30T02:34:40.381Z,9.50
2023-03-30T02:37:48.798Z,9.10
2023-03-30T02:40:52.863Z,8.70
2023-03-30T02:43:56.580Z,7.60
2023-03-30T02:47:00.348Z,9.20
2023-03-30T02:50:09.364Z,13.00
2023-03-30T02:53:07.168Z,12.10
2023-03-30T02:56:07.875Z,12.50
2023-03-30T02:59:24.740Z,12.60
2023-03-30T03:02:20.268Z,9.90
2023-03-30T03:05:12.503Z,11.00
2023-03-30T03:08:15.645Z,9.50
2023-03-30T03:11:02.744Z,10.50
2023-03-30T03:13:50.973Z,8.10
2023-03-30T03:16:38.052Z,7.90
2023-03-30T03:19:28.618Z,8.20
2023-03-30T03:22:15.987Z,8.60
2023-03-30T03:25:02.808Z,12.10
2023-03-30T03:28:04.032Z,10.60
2023-03-30T03:31:02.521Z,10.40
2023-03-30T03:33:50.989Z,9.80
2023-03-30T03:36:45.144Z,10.30
2023-03-30T03:39:32.674Z,8.50
2023-03-30T03:42:26.340Z,9.60
2023-03-30T03:45:28.300Z,9.10
2023-03-30T03:48:19.027Z,8.60
2023-03-30T03:51:08.301Z,8.90
2023-03-30T03:53:54.877Z,7.80
2023-03-30T03:56:42.032Z,9.00
2023-03-30T03:59:28.547Z,10.40
2023-03-30T04:02:14.964Z,8.90
2023-03-30T04:05:01.689Z,11.80
2023-03-30T04:07:48.835Z,11.80
2023-03-30T04:10:35.266Z,12.10
2023-03-30T04:13:42.075Z,11.70
2023-03-30T04:16:38.484Z,11.40
2023-03-30T04:19:42.103Z,10.50
2023-03-30T04:23:01.845Z,10.20
2023-03-30T04:26:04.918Z,10.40
2023-03-30T04:29:10.487Z,11.10
2023-03-30T04:32:03.802Z,9.10
2023-03-30T04:35:11.169Z,11.40
2023-03-30T04:38:22.190Z,9.30
2023-03-30T04:41:36.133Z,9.60
2023-03-30T04:44:43.236Z,8.80
2023-03-30T04:48:01.939Z,12.60
2023-03-30T04:51:11.958Z,12.60
2023-03-30T04:54:11.065Z,12.20
2023-03-30T04:57:16.765Z,13.20
2023-03-30T05:00:27.436Z,10.50
2023-03-30T05:03:40.446Z,11.80
2023-03-30T05:07:03.174Z,10.00
2023-03-30T05:10:08.569Z,12.00
2023-03-30T05:13:13.315Z,12.80
2023-03-30T05:16:12.709Z,11.00
2023-03-30T05:18:59.180Z,10.60
2023-03-30T05:22:04.564Z,9.80
2023-03-30T05:25:10.068Z,11.00
2023-03-30T05:28:19.882Z,16.50
2023-03-30T05:31:17.483Z,15.20
2023-03-30T05:34:23.084Z,15.60
2023-03-30T05:37:28.642Z,16.20
2023-03-30T05:40:34.362Z,14.00
2023-03-30T05:43:30.628Z,14.80
2023-03-30T05:46:34.607Z,14.80
2023-03-30T05:49:49.264Z,15.90
2023-03-30T05:52:44.742Z,14.10
2023-03-30T05:55:49.448Z,13.40
2023-03-30T05:58:56.311Z,13.40
2023-03-30T06:02:15.448Z,14.30
2023-03-30T06:05:03.347Z,13.60
2023-03-30T06:07:50.442Z,17.50
2023-03-30T06:10:38.044Z,16.70
2023-03-30T06:13:25.350Z,17.40
2023-03-30T06:16:13.364Z,14.50
2023-03-30T06:19:00.008Z,14.00
2023-03-30T06:21:47.933Z,15.10
2023-03-30T06:25:00.934Z,14.50
2023-03-30T06:27:47.902Z,15.90
2023-03-30T06:30:34.879Z,11.90
2023-03-30T06:33:23.213Z,13.00
2023-03-30T06:36:16.042Z,13.00
2023-03-30T06:39:06.593Z,12.40
2023-03-30T06:41:54.353Z,15.00
2023-03-30T06:45:11.884Z,14.20
2023-03-30T06:47:58.446Z,14.90
2023-03-30T06:50:49.219Z,12.80
2023-03-30T06:53:41.137Z,12.40
2023-03-30T06:56:28.168Z,13.20
2023-03-30T06:59:34.577Z,12.00
2023-03-30T07:02:42.587Z,12.80
2023-03-30T07:05:32.818Z,12.80
2023-03-30T07:08:30.776Z,12.40
2023-03-30T07:11:17.618Z,16.00
2023-03-30T07:14:05.498Z,15.20
2023-03-30T07:16:53.147Z,12.60
2023-03-30T07:19:39.480Z,10.70
2023-03-30T07:22:26.286Z,12.70
2023-03-30T07:25:13.670Z,12.60
2023-03-30T07:28:00.219Z,12.20
2023-03-30T07:30:47.348Z,11.60
2023-03-30T07:33:34.882Z,10.10
2023-03-30T07:36:21.560Z,11.70
2023-03-30T07:39:08.641Z,14.40
2023-03-30T07:41:57.247Z,14.10
2023-03-30T07:44:43.939Z,15.80
2023-03-30T07:47:32.127Z,12.30
2023-03-30T07:50:18.776Z,13.00
2023-03-30T07:53:05.784Z,14.40
2023-03-30T07:55:53.199Z,11.80
2023-03-30T07:58:45.861Z,13.50
2023-03-30T08:01:34.032Z,12.20
2023-03-30T08:04:37.481Z,12.30
2023-03-30T08:07:24.220Z,11.60
2023-03-30T08:10:14.484Z,14.90
2023-03-30T08:13:01.315Z,15.30
2023-03-30T08:15:48.013Z,13.80
2023-03-30T08:18:37.193Z,12.30
2023-03-30T08:21:26.354Z,13.10
2023-03-30T08:24:13.233Z,8.90
2023-03-30T08:26:59.485Z,9.50
2023-03-30T08:29:45.865Z,10.60
2023-03-30T08:32:32.378Z,11.80
2023-03-30T08:35:19.897Z,14.30
2023-03-30T08:38:06.594Z,12.40
2023-03-30T08:40:53.297Z,12.10
2023-03-30T08:43:48.771Z,12.30
2023-03-30T08:46:36.060Z,13.80
2023-03-30T08:49:23.567Z,11.00
2023-03-30T08:52:20.877Z,13.80
2023-03-30T08:55:30.406Z,13.50
2023-03-30T08:58:40.036Z,11.90
2023-03-30T09:01:36.714Z,12.30
2023-03-30T09:04:49.348Z,11.50
2023-03-30T09:07:55.264Z,9.80
2023-03-30T09:10:45.866Z,10.10
2023-03-30T09:13:35.089Z,14.90
2023-03-30T09:16:38.373Z,12.90
2023-03-30T09:19:35.194Z,11.80
2023-03-30T09:22:29.536Z,10.30
2023-03-30T09:25:36.124Z,10.90
2023-03-30T09:28:41.822Z,11.60
2023-03-30T09:31:41.699Z,10.60
2023-03-30T09:34:44.194Z,12.40
2023-03-30T09:37:31.291Z,11.20
2023-03-30T09:40:34.430Z,11.30
2023-03-30T09:43:53.671Z,11.10
2023-03-30T09:46:40.538Z,10.70
2023-03-30T09:49:29.883Z,11.10
2023-03-30T09:52:22.089Z,10.40
2023-03-30T09:55:28.237Z,9.20
2023-03-30T09:58:20.552Z,10.60
2023-03-30T10:01:12.974Z,10.20
2023-03-30T10:04:09.910Z,9.70
2023-03-30T10:06:58.776Z,12.50
2023-03-30T10:09:48.925Z,11.90
2023-03-30T10:12:35.620Z,10.30
2023-03-30T10:15:28.108Z,9.30
2023-03-30T10:18:17.556Z,10.60
2023-03-30T10:21:06.373Z,9.70
2023-03-30T10:24:23.444Z,10.30
2023-03-30T10:27:13.666Z,10.90
2023-03-30T10:30:09.775Z,10.30
2023-03-30T10:32:59.966Z,10.40
2023-03-30T10:35:50.742Z,10.30
2023-03-30T10:38:40.232Z,8.20
2023-03-30T10:41:27.115Z,9.30
2023-03-30T10:44:26.324Z,9.40
2023-03-30T10:47:31.416Z,9.40
2023-03-30T10:50:50.088Z,8.80
2023-03-30T10:53:48.785Z,10.30
2023-03-30T10:56:46.357Z,9.50
2023-03-30T11:00:10.921Z,8.40
2023-03-30T11:03:15.736Z,8.20
2023-03-30T11:06:25.056Z,9.20
2023-03-30T11:09:18.333Z,8.00
2023-03-30T11:12:12.451Z,8.80
2023-03-30T11:15:08.411Z,8.90
2023-03-30T11:18:02.547Z,9.40
2023-03-30T11:20:59.319Z,8.70
2023-03-30T11:23:51.305Z,9.00
2023-03-30T11:26:43.141Z,8.50
2023-03-30T11:29:29.809Z,8.60
2023-03-30T11:32:41.147Z,8.40
2023-03-30T11:35:47.990Z,9.60
2023-03-30T11:38:51.917Z,9.50
2023-03-30T11:41:50.814Z,9.50
2023-03-30T11:44:37.212Z,16.20
2023-03-30T11:47:46.137Z,16.30
2023-03-30T11:50:58.264Z,16.70
2023-03-30T11:54:32.841Z,28.20
2023-03-30T11:57:48.266Z,29.40
2023-03-30T12:01:01.185Z,13.00
2023-03-30T12:03:53.304Z,23.20
2023-03-30T12:06:42.404Z,44.20
2023-03-30T12:09:55.448Z,23.50
2023-03-30T12:12:42.940Z,70.40
2023-03-30T12:15:43.876Z,22.70
2023-03-30T12:18:45.713Z,46.00
2023-03-30T12:21:39.917Z,23.80
2023-03-30T12:24:38.167Z,68.60
2023-03-30T12:27:27.610Z,49.00
2023-03-30T12:30:26.987Z,72.60
2023-03-30T12:33:18.988Z,25.20
2023-03-30T12:36:26.140Z,38.60
2023-03-30T12:39:31.092Z,40.80
2023-03-30T12:42:35.169Z,42.10
2023-03-30T12:45:33.508Z,37.00
2023-03-30T12:48:26.868Z,19.00
2023-03-30T12:51:34.820Z,32.50
2023-03-30T12:55:12.876Z,18.90
2023-03-30T12:58:26.977Z,20.00
2023-03-30T13:01:22.405Z,26.50
2023-03-30T13:04:12.557Z,22.50
2023-03-30T13:07:03.531Z,37.00
2023-03-30T13:10:04.840Z,17.90
2023-03-30T13:13:01.480Z,22.50
2023-03-30T13:15:53.107Z,12.60
2023-03-30T13:18:52.845Z,11.50
2023-03-30T13:22:13.659Z,21.50
2023-03-30T13:25:03.950Z,18.30
2023-03-30T13:27:53.005Z,15.70
2023-03-30T13:30:40.998Z,18.70
2023-03-30T13:33:27.795Z,10.90
2023-03-30T13:36:24.800Z,9.20
2023-03-30T13:39:14.701Z,13.80
2023-03-30T13:42:46.038Z,20.50
2023-03-30T13:45:38.573Z,16.80
2023-03-30T13:48:36.508Z,13.80
2023-03-30T13:51:29.850Z,12.50
2023-03-30T13:54:25.836Z,13.10
2023-03-30T13:57:21.040Z,11.70
2023-03-30T14:00:47.202Z,13.70
2023-03-30T14:03:40.362Z,22.10
2023-03-30T14:06:29.416Z,21.20
2023-03-30T14:09:30.526Z,13.90
2023-03-30T14:12:22.172Z,13.30
2023-03-30T14:15:27.746Z,11.60
2023-03-30T14:18:23.800Z,14.80
2023-03-30T14:21:18.058Z,13.60
2023-03-30T14:24:04.990Z,9.10
2023-03-30T14:26:51.156Z,12.00
2023-03-30T14:29:45.339Z,12.00
2023-03-30T14:32:32.264Z,11.20
2023-03-30T14:35:19.450Z,11.60
2023-03-30T14:38:16.366Z,11.90
2023-03-30T14:41:07.905Z,13.80
2023-03-30T14:43:56.336Z,16.10
2023-03-30T14:46:46.903Z,15.30
2023-03-30T14:49:34.708Z,12.60
2023-03-30T14:52:31.090Z,11.30
2023-03-30T14:58:13.833Z,11.10
2023-03-30T15:01:09.220Z,12.60
2023-03-30T15:03:58.999Z,13.80
2023-03-30T15:06:47.427Z,11.00
2023-03-30T15:09:38.829Z,9.80
2023-03-30T15:12:39.756Z,10.70
2023-03-30T15:15:31.887Z,12.80
2023-03-30T15:18:22.799Z,12.70
2023-03-30T15:21:12.949Z,15.50
2023-03-30T15:24:00.756Z,10.60
2023-03-30T15:26:50.106Z,12.10
2023-03-30T15:29:39.882Z,12.10
2023-03-30T15:32:39.268Z,12.60
2023-03-30T15:35:32.899Z,11.80
2023-03-30T15:38:30.779Z,13.80
2023-03-30T15:41:21.083Z,12.40
2023-03-30T15:47:00.896Z,13.00
2023-03-30T15:49:50.713Z,14.60
2023-03-30T15:52:42.981Z,17.50
2023-03-30T15:55:33.193Z,18.20
2023-03-30T15:58:25.821Z,16.50
2023-03-30T16:01:14.743Z,15.70
2023-03-30T16:04:02.430Z,16.60
2023-03-30T16:06:49.679Z,14.70
2023-03-30T16:09:36.385Z,13.20
2023-03-30T16:12:31.180Z,17.30
2023-03-30T16:15:20.328Z,17.20
2023-03-30T16:18:06.863Z,17.70
2023-03-30T16:20:53.663Z,18.60
2023-03-30T16:23:40.328Z,21.90
2023-03-30T16:26:26.577Z,21.70
2023-03-30T16:29:21.944Z,18.90
2023-03-30T16:32:08.403Z,16.70
2023-03-30T16:34:54.760Z,17.20
2023-03-30T16:37:42.099Z,16.00
2023-03-30T16:40:43.071Z,16.20
2023-03-30T16:43:29.449Z,19.90
2023-03-30T16:46:18.313Z,19.30
2023-03-30T16:49:05.388Z,20.70
2023-03-30T16:51:55.398Z,18.30
2023-03-30T16:54:43.896Z,20.80
2023-03-30T16:57:30.568Z,19.80
2023-03-30T17:00:19.517Z,26.50
2023-03-30T17:03:06.293Z,27.60
2023-03-30T17:05:52.804Z,25.20
2023-03-30T17:08:42.428Z,25.10
2023-03-30T17:11:30.520Z,24.60
2023-03-30T17:14:17.018Z,18.60
2023-03-30T17:17:03.639Z,19.30
2023-03-30T17:19:50.544Z,13.70
2023-03-30T17:22:37.140Z,17.40
2023-03-30T17:25:26.505Z,19.10
2023-03-30T17:28:31.664Z,20.50
2023-03-30T17:31:21.240Z,23.00
2023-03-30T17:34:07.830Z,25.50
2023-03-30T17:36:54.142Z,24.20
2023-03-30T17:39:40.641Z,21.40
2023-03-30T17:42:29.156Z,18.20
2023-03-30T17:45:19.478Z,22.40
2023-03-30T17:48:12.404Z,18.50
2023-03-30T17:50:58.730Z,20.40
2023-03-30T17:53:45.397Z,22.00
2023-03-30T17:56:32.097Z,19.80
2023-03-30T17:59:19.849Z,25.80
2023-03-30T18:02:06.261Z,21.20
2023-03-30T18:04:53.090Z,26.80
2023-03-30T18:07:41.022Z,21.30
2023-03-30T18:10:36.409Z,23.40
2023-03-30T18:13:24.288Z,20.20
2023-03-30T18:16:14.190Z,15.20
2023-03-30T18:19:02.357Z,13.30
2023-03-30T18:21:49.027Z,24.30
2023-03-30T18:24:35.995Z,22.30
2023-03-30T18:27:22.587Z,21.90
2023-03-30T18:30:39.722Z,18.40
2023-03-30T18:33:27.523Z,18.40
2023-03-30T18:36:14.856Z,21.00
2023-03-30T18:39:02.573Z,20.60
2023-03-30T18:41:49.596Z,21.50
2023-03-30T18:44:36.973Z,21.90
2023-03-30T18:47:24.816Z,19.10
2023-03-30T18:50:18.940Z,24.30
2023-03-30T18:53:08.552Z,26.00
2023-03-30T18:55:58.520Z,16.40
2023-03-30T18:58:45.111Z,14.50
2023-03-30T19:01:32.976Z,13.60
2023-03-30T19:04:21.410Z,13.30
2023-03-30T19:07:11.167Z,13.90
2023-03-30T19:09:57.743Z,13.20
2023-03-30T19:12:45.158Z,11.60
2023-03-30T19:15:34.243Z,10.60
2023-03-30T19:18:21.311Z,8.10
2023-03-30T19:21:20.931Z,6.00
2023-03-30T19:24:07.582Z,5.90
2023-03-30T19:26:54.094Z,6.60
2023-03-30T19:29:40.891Z,4.90
2023-03-30T19:32:27.607Z,5.20
2023-03-30T19:35:15.574Z,4.70
2023-03-30T19:38:02.127Z,4.10
2023-03-30T19:40:48.435Z,4.30
2023-03-30T19:43:34.909Z,4.10
2023-03-30T19:46:22.254Z,4.60
2023-03-30T19:49:08.638Z,4.80
2023-03-30T19:51:55.656Z,5.30
2023-03-30T19:54:41.981Z,5.00
2023-03-30T19:57:28.872Z,5.90
2023-03-30T20:00:18.089Z,6.50
2023-03-30T20:03:04.936Z,6.50
2023-03-30T20:05:51.986Z,6.30
2023-03-30T20:08:40.274Z,7.00
2023-03-30T20:11:27.684Z,8.00
2023-03-30T20:14:15.373Z,7.80
2023-03-30T20:17:01.981Z,6.60
2023-03-30T20:19:48.802Z,6.80
2023-03-30T20:22:37.755Z,7.30
2023-03-30T20:25:24.728Z,6.20
2023-03-30T20:28:11.534Z,6.50
2023-03-30T20:30:58.687Z,7.80
2023-03-30T20:33:45.731Z,8.30
2023-03-30T20:36:32.232Z,8.20
2023-03-30T20:39:21.970Z,8.90
2023-03-30T20:42:09.460Z,7.10
2023-03-30T20:44:57.849Z,7.70
2023-03-30T20:47:50.180Z,6.40
2023-03-30T20:50:37.205Z,6.80
2023-03-30T20:53:24.892Z,5.30
2023-03-30T20:56:11.840Z,6.90
2023-03-30T20:58:58.396Z,7.10
2023-03-30T21:01:47.276Z,6.70
2023-03-30T21:04:34.077Z,6.50
2023-03-30T21:07:24.763Z,7.20
2023-03-30T21:10:11.332Z,9.30
2023-03-30T21:12:57.609Z,9.20
2023-03-30T21:15:45.057Z,10.10
2023-03-30T21:18:31.491Z,9.70
2023-03-30T21:21:18.842Z,7.30
2023-03-30T21:24:07.089Z,7.40
2023-03-30T21:26:53.038Z,6.80
2023-03-30T21:29:39.484Z,6.20
2023-03-30T21:32:28.706Z,5.30
2023-03-30T21:38:04.036Z,6.80
2023-03-30T21:40:58.544Z,6.30
2023-03-30T21:43:48.040Z,6.70
2023-03-30T21:46:35.122Z,6.20
2023-03-30T21:49:21.691Z,7.50
2023-03-30T21:52:08.840Z,8.10
2023-03-30T21:54:55.717Z,6.60
2023-03-30T21:57:41.875Z,5.90
2023-03-30T22:00:28.719Z,6.80
2023-03-30T22:03:18.078Z,7.40
2023-03-30T22:06:07.778Z,6.90
2023-03-30T22:08:54.351Z,7.00
2023-03-30T22:11:41.175Z,7.10
2023-03-30T22:14:27.781Z,7.70
2023-03-30T22:17:14.287Z,8.50
2023-03-30T22:20:01.916Z,7.60
2023-03-30T22:22:48.972Z,8.40
2023-03-30T22:25:35.218Z,7.50
2023-03-30T22:28:22.145Z,7.60
2023-03-30T22:31:10.632Z,7.20
2023-03-30T22:33:57.746Z,6.50
2023-03-30T22:36:44.234Z,7.30
2023-03-30T22:39:30.523Z,6.60
2023-03-30T22:42:17.651Z,7.20
2023-03-30T22:45:04.763Z,6.40
2023-03-30T22:47:52.035Z,7.50
2023-03-30T22:50:38.400Z,7.70
2023-03-30T22:53:25.104Z,8.30
2023-03-30T22:56:11.900Z,8.10
2023-03-30T22:59:00.879Z,8.50
2023-03-30T23:01:47.574Z,7.70
2023-03-30T23:04:34.310Z,9.10
2023-03-30T23:07:21.780Z,9.00
2023-03-30T23:10:09.287Z,8.50
2023-03-30T23:12:57.902Z,6.30
2023-03-30T23:15:44.598Z,8.70
2023-03-30T23:18:30.983Z,8.40
2023-03-30T23:21:17.572Z,7.20
2023-03-30T23:24:07.654Z,8.00
2023-03-30T23:26:54.533Z,7.60
2023-03-30T23:29:41.673Z,6.90
2023-03-30T23:32:28.349Z,8.00
2023-03-30T23:35:14.678Z,7.60
2023-03-30T23:38:03.323Z,8.20
2023-03-30T23:40:49.808Z,7.20
2023-03-30T23:43:36.294Z,7.80
2023-03-30T23:46:22.616Z,8.40
2023-03-30T23:49:09.495Z,7.20
2023-03-30T23:51:55.988Z,7.90
2023-03-30T23:54:42.830Z,8.10
2023-03-30T23:57:29.775Z,7.90
